| time (UTC) | temp F | wind direction | speed MPH | gust MPH | rain 1hr in | rain 24hr in | rain mn in | humidity % | barometer mb |
| 20260507003313 | 73 | 205 | 5.0 | 6.0 | 0.00 | 0.00 | 0.00 | 62 | 1015.8 |
| 20260507002808 | 73 | 202 | 6.0 | 6.0 | 0.00 | 0.00 | 0.00 | 61 | 1015.8 |
| 20260507002306 | 74 | 189 | 5.0 | 5.0 | 0.00 | 0.00 | 0.00 | 59 | 1015.7 |
| 20260507001802 | 75 | 198 | 5.0 | 6.0 | 0.00 | 0.00 | 0.00 | 58 | 1015.8 |
| 20260507001300 | 76 | 163 | 4.0 | 6.0 | 0.00 | 0.00 | 0.00 | 55 | 1015.7 |
| 20260507000756 | 77 | 191 | 5.0 | 6.0 | 0.00 | 0.00 | 0.00 | 53 | 1015.8 |
| 20260507000252 | 76 | 196 | 3.0 | 7.0 | 0.00 | 0.00 | 0.00 | 54 | 1015.9 |
| 20260506235748 | 78 | 180 | 4.0 | 6.0 | 0.00 | 0.00 | 0.00 | 54 | 1015.8 |
| 20260506235244 | 78 | 250 | 2.0 | 6.0 | 0.00 | 0.00 | 0.00 | 52 | 1015.8 |
| 20260506234741 | 78 | 202 | 3.0 | 6.0 | 0.00 | 0.00 | 0.00 | 52 | 1015.8 |
| 20260506234238 | 79 | 185 | 5.0 | 6.0 | 0.00 | 0.00 | 0.00 | 50 | 1015.8 |
| 20260506233736 | 78 | 188 | 4.0 | 6.0 | 0.00 | 0.00 | 0.00 | 51 | 1015.8 |
| 20260506233232 | 78 | 213 | 5.0 | 6.0 | 0.00 | 0.00 | 0.00 | 52 | 1015.9 |
| 20260506232729 | 79 | 228 | 3.0 | 8.0 | 0.00 | 0.00 | 0.00 | 49 | 1015.9 |
| 20260506232224 | 78 | 201 | 4.0 | 5.0 | 0.00 | 0.00 | 0.00 | 51 | 1015.9 |
| 20260506231721 | 76 | 197 | 5.0 | 6.0 | 0.00 | 0.00 | 0.00 | 53 | 1016.0 |
| 20260506231220 | 77 | 174 | 4.0 | 7.0 | 0.00 | 0.00 | 0.00 | 53 | 1015.9 |
| 20260506230716 | 77 | 169 | 5.0 | 5.0 | 0.00 | 0.00 | 0.00 | 51 | 1015.9 |
| 20260506230213 | 76 | 217 | 7.0 | 9.0 | 0.00 | 0.00 | 0.00 | 51 | 1016.3 |
| 20260506225709 | 78 | 186 | 5.0 | 6.0 | 0.00 | 0.00 | 0.00 | 50 | 1016.3 |
| 20260506225206 | 79 | 177 | 3.0 | 6.0 | 0.00 | 0.00 | 0.00 | 48 | 1016.4 |
| 20260506224703 | 78 | 213 | 6.0 | 6.0 | 0.00 | 0.00 | 0.00 | 51 | 1016.4 |
| 20260506224200 | 78 | 219 | 3.0 | 6.0 | 0.00 | 0.00 | 0.00 | 48 | 1016.3 |
| 20260506223656 | 77 | 202 | 5.0 | 5.0 | 0.00 | 0.00 | 0.00 | 51 | 1016.4 |
| 20260506223152 | 77 | 243 | 2.0 | 5.0 | 0.00 | 0.00 | 0.00 | 51 | 1016.5 |
| 20260506222649 | 77 | 209 | 6.0 | 6.0 | 0.00 | 0.00 | 0.00 | 52 | 1016.6 |
| 20260506222145 | 76 | 218 | 4.0 | 6.0 | 0.00 | 0.00 | 0.00 | 54 | 1016.5 |
| 20260506221643 | 76 | 189 | 5.0 | 6.0 | 0.00 | 0.00 | 0.00 | 53 | 1016.7 |
| 20260506221141 | 77 | 167 | 4.0 | 6.0 | 0.00 | 0.00 | 0.00 | 52 | 1016.5 |
| 20260506220637 | 74 | 198 | 4.0 | 6.0 | 0.00 | 0.00 | 0.00 | 56 | 1016.4 |
| 20260506220132 | 74 | 170 | 5.0 | 7.0 | 0.00 | 0.00 | 0.00 | 55 | 1016.9 |
| 20260506215629 | 74 | 164 | 3.0 | 6.0 | 0.00 | 0.00 | 0.00 | 54 | 1017.0 |
| 20260506215125 | 74 | 167 | 5.0 | 6.0 | 0.00 | 0.00 | 0.00 | 56 | 1016.9 |
| 20260506214622 | 74 | 166 | 5.0 | 8.0 | 0.00 | 0.00 | 0.00 | 56 | 1017.1 |
| 20260506214119 | 76 | 184 | 4.0 | 6.0 | 0.00 | 0.00 | 0.00 | 54 | 1017.0 |
| 20260506213617 | 75 | 198 | 4.0 | 5.0 | 0.00 | 0.00 | 0.00 | 54 | 1017.0 |
| 20260506213114 | 74 | 200 | 2.0 | 6.0 | 0.00 | 0.00 | 0.00 | 57 | 1017.3 |
| 20260506212611 | 75 | 169 | 5.0 | 5.0 | 0.00 | 0.00 | 0.00 | 55 | 1017.3 |
| 20260506212106 | 74 | 185 | 5.0 | 7.0 | 0.00 | 0.00 | 0.00 | 56 | 1017.4 |
| 20260506211602 | 74 | 192 | 4.0 | 6.0 | 0.00 | 0.00 | 0.00 | 57 | 1017.1 |
| 20260506211059 | 74 | 189 | 5.0 | 7.0 | 0.00 | 0.00 | 0.00 | 55 | 1017.3 |
| 20260506210556 | 74 | 166 | 6.0 | 6.0 | 0.00 | 0.00 | 0.00 | 56 | 1017.3 |
| 20260506210052 | 75 | 175 | 5.0 | 6.0 | 0.00 | 0.00 | 0.00 | 55 | 1017.3 |
| 20260506205549 | 75 | 207 | 4.0 | 5.0 | 0.00 | 0.00 | 0.00 | 54 | 1017.4 |
| 20260506205044 | 75 | 203 | 4.0 | 5.0 | 0.00 | 0.00 | 0.00 | 55 | 1017.4 |
| 20260506204543 | 74 | 198 | 5.0 | 6.0 | 0.00 | 0.00 | 0.00 | 57 | 1017.4 |
| 20260506204039 | 74 | 151 | 7.0 | 7.0 | 0.00 | 0.00 | 0.00 | 56 | 1017.3 |
| 20260506203538 | 73 | 187 | 4.0 | 6.0 | 0.00 | 0.00 | 0.00 | 59 | 1017.4 |
| 20260506203034 | 73 | 198 | 5.0 | 8.0 | 0.00 | 0.00 | 0.00 | 58 | 1017.6 |
| 20260506202532 | 73 | 189 | 5.0 | 6.0 | 0.00 | 0.00 | 0.00 | 58 | 1017.6 |
| 20260506202028 | 73 | 162 | 5.0 | 6.0 | 0.00 | 0.00 | 0.00 | 57 | 1017.6 |
| 20260506201526 | 73 | 197 | 5.0 | 6.0 | 0.00 | 0.00 | 0.00 | 59 | 1017.5 |
| 20260506201022 | 71 | 156 | 6.0 | 6.0 | 0.00 | 0.00 | 0.00 | 59 | 1017.6 |
| 20260506200518 | 71 | 164 | 6.0 | 7.0 | 0.00 | 0.00 | 0.00 | 65 | 1017.7 |
| 20260506200015 | 71 | 198 | 3.0 | 6.0 | 0.00 | 0.00 | 0.00 | 62 | 1017.6 |
| 20260506195512 | 70 | 196 | 4.0 | 8.0 | 0.00 | 0.00 | 0.00 | 61 | 1017.8 |
| 20260506195008 | 70 | 177 | 4.0 | 5.0 | 0.00 | 0.00 | 0.00 | 63 | 1017.8 |
| 20260506194506 | 69 | 171 | 5.0 | 5.0 | 0.00 | 0.00 | 0.00 | 63 | 1017.8 |
| 20260506194002 | 69 | 205 | 4.0 | 6.0 | 0.00 | 0.00 | 0.00 | 63 | 1017.9 |
| 20260506193459 | 70 | 180 | 4.0 | 5.0 | 0.00 | 0.00 | 0.00 | 62 | 1018.0 |
| 20260506192955 | 70 | 173 | 5.0 | 6.0 | 0.00 | 0.00 | 0.00 | 62 | 1017.8 |
| 20260506192453 | 71 | 182 | 4.0 | 6.0 | 0.00 | 0.00 | 0.00 | 60 | 1017.9 |
| 20260506191949 | 71 | 179 | 5.0 | 6.0 | 0.00 | 0.00 | 0.00 | 61 | 1017.9 |
| 20260506191446 | 70 | 177 | 4.0 | 7.0 | 0.00 | 0.00 | 0.00 | 61 | 1017.9 |
| 20260506190942 | 69 | 171 | 4.0 | 7.0 | 0.00 | 0.00 | 0.00 | 63 | 1018.1 |
| 20260506190439 | 69 | 200 | 4.0 | 7.0 | 0.00 | 0.00 | 0.00 | 61 | 1018.0 |
| 20260506185936 | 69 | 236 | 3.0 | 7.0 | 0.00 | 0.00 | 0.00 | 60 | 1018.2 |
| 20260506185434 | 69 | 179 | 5.0 | 5.0 | 0.00 | 0.00 | 0.00 | 63 | 1018.1 |
| 20260506184930 | 68 | 179 | 4.0 | 6.0 | 0.00 | 0.00 | 0.00 | 63 | 1018.0 |
| 20260506184427 | 68 | 181 | 4.0 | 7.0 | 0.00 | 0.00 | 0.00 | 62 | 1018.1 |
| 20260506183925 | 68 | 180 | 3.0 | 5.0 | 0.00 | 0.00 | 0.00 | 62 | 1018.3 |
| 20260506183420 | 68 | 188 | 5.0 | 6.0 | 0.00 | 0.00 | 0.00 | 64 | 1018.2 |
| 20260506182917 | 67 | 186 | 3.0 | 8.0 | 0.00 | 0.00 | 0.00 | 64 | 1018.4 |
| 20260506182414 | 67 | 184 | 3.0 | 5.0 | 0.00 | 0.00 | 0.00 | 66 | 1018.3 |
| 20260506181912 | 66 | 171 | 4.0 | 5.0 | 0.00 | 0.00 | 0.00 | 67 | 1018.4 |
| 20260506181409 | 66 | 207 | 5.0 | 7.0 | 0.00 | 0.00 | 0.00 | 64 | 1018.4 |
| 20260506180906 | 66 | 191 | 5.0 | 6.0 | 0.00 | 0.00 | 0.00 | 65 | 1018.4 |
| 20260506180402 | 66 | 214 | 5.0 | 6.0 | 0.00 | 0.00 | 0.00 | 64 | 1018.3 |
| 20260506175859 | 66 | 213 | 6.0 | 6.0 | 0.00 | 0.00 | 0.00 | 66 | 1018.4 |
| 20260506175356 | 65 | 185 | 4.0 | 6.0 | 0.00 | 0.00 | 0.00 | 67 | 1018.5 |
| 20260506174853 | 65 | 182 | 3.0 | 6.0 | 0.00 | 0.00 | 0.00 | 67 | 1018.4 |
| 20260506174350 | 65 | 200 | 4.0 | 6.0 | 0.00 | 0.00 | 0.00 | 68 | 1018.5 |
| 20260506173848 | 65 | 231 | 6.0 | 9.0 | 0.00 | 0.00 | 0.00 | 67 | 1018.5 |
| 20260506173344 | 64 | 161 | 6.0 | 7.0 | 0.00 | 0.00 | 0.00 | 69 | 1018.6 |
| 20260506172842 | 64 | 210 | 4.0 | 8.0 | 0.00 | 0.00 | 0.00 | 69 | 1018.4 |
| 20260506172338 | 64 | 212 | 4.0 | 6.0 | 0.00 | 0.00 | 0.00 | 70 | 1018.5 |
| 20260506171835 | 64 | 164 | 6.0 | 7.0 | 0.00 | 0.00 | 0.00 | 70 | 1018.6 |
| 20260506171332 | 64 | 176 | 4.0 | 5.0 | 0.00 | 0.00 | 0.00 | 72 | 1018.7 |
| 20260506170830 | 63 | 193 | 4.0 | 5.0 | 0.00 | 0.00 | 0.00 | 75 | 1018.5 |
| 20260506170326 | 62 | 174 | 5.0 | 5.0 | 0.00 | 0.00 | 0.00 | 74 | 1018.7 |
| 20260506165825 | 62 | 186 | 5.0 | 5.0 | 0.00 | 0.00 | 0.00 | 74 | 1018.7 |
| 20260506165323 | 61 | 181 | 4.0 | 4.0 | 0.00 | 0.00 | 0.00 | 76 | 1018.8 |
| 20260506164819 | 61 | 201 | 4.0 | 5.0 | 0.00 | 0.00 | 0.00 | 76 | 1018.7 |
| 20260506164316 | 61 | 181 | 4.0 | 5.0 | 0.00 | 0.00 | 0.00 | 75 | 1018.6 |
| 20260506163813 | 61 | 166 | 6.0 | 7.0 | 0.00 | 0.00 | 0.00 | 74 | 1018.6 |
| 20260506163307 | 60 | 226 | 4.0 | 7.0 | 0.00 | 0.00 | 0.00 | 76 | 1018.8 |
| 20260506162803 | 60 | 175 | 3.0 | 5.0 | 0.00 | 0.00 | 0.00 | 79 | 1018.8 |
| 20260506162306 | 61 | 198 | 5.0 | 6.0 | 0.00 | 0.00 | 0.00 | 75 | 1018.6 |
| 20260506161758 | 60 | 189 | 4.0 | 5.0 | 0.00 | 0.00 | 0.00 | 78 | 1018.7 |
| 20260506161256 | 59 | 159 | 5.0 | 5.0 | 0.00 | 0.00 | 0.00 | 82 | 1018.8 |
| 20260506160753 | 58 | 178 | 4.0 | 7.0 | 0.00 | 0.00 | 0.00 | 83 | 1018.8 |
| 20260506160250 | 57 | 180 | 4.0 | 5.0 | 0.00 | 0.00 | 0.00 | 87 | 1018.8 |
| 20260506155749 | 56 | 181 | 3.0 | 5.0 | 0.00 | 0.00 | 0.00 | 90 | 1019.2 |
| 20260506155245 | 55 | 196 | 5.0 | 5.0 | 0.00 | 0.00 | 0.00 | 91 | 1019.2 |
| 20260506153352 | 54 | 178 | 4.0 | 5.0 | 0.00 | 0.00 | 0.00 | 93 | 1019.1 |
| 20260506152849 | 54 | 181 | 4.0 | 5.0 | 0.00 | 0.00 | 0.00 | 94 | 1018.9 |
| 20260506152346 | 53 | 167 | 5.0 | 6.0 | 0.00 | 0.00 | 0.00 | 94 | 1019.1 |
| 20260506151844 | 53 | 176 | 4.0 | 6.0 | 0.00 | 0.00 | 0.00 | 94 | 1019.1 |
| 20260506151341 | 53 | 170 | 4.0 | 5.0 | 0.00 | 0.00 | 0.00 | 94 | 1018.8 |
| 20260506150838 | 53 | 172 | 4.0 | 5.0 | 0.00 | 0.00 | 0.00 | 94 | 1019.1 |
| 20260506150335 | 53 | 162 | 5.0 | 5.0 | 0.00 | 0.00 | 0.00 | 94 | 1019.2 |
| 20260506145831 | 53 | 170 | 4.0 | 5.0 | 0.00 | 0.00 | 0.00 | 94 | 1018.9 |
| 20260506145328 | 53 | 171 | 4.0 | 5.0 | 0.00 | 0.00 | 0.00 | 94 | 1019.3 |
| 20260506144826 | 53 | 176 | 4.0 | 6.0 | 0.00 | 0.00 | 0.00 | 94 | 1019.2 |
| 20260506144322 | 53 | 176 | 4.0 | 5.0 | 0.00 | 0.00 | 0.00 | 94 | 1019.1 |
| 20260506143821 | 53 | 170 | 4.0 | 5.0 | 0.00 | 0.00 | 0.00 | 94 | 1019.3 |
| 20260506143317 | 53 | 177 | 4.0 | 5.0 | 0.00 | 0.00 | 0.00 | 94 | 1019.2 |
| 20260506142815 | 53 | 172 | 5.0 | 5.0 | 0.00 | 0.00 | 0.00 | 94 | 1019.2 |
| 20260506142313 | 53 | 179 | 4.0 | 5.0 | 0.00 | 0.00 | 0.00 | 94 | 1019.2 |
| 20260506141811 | 53 | 179 | 4.0 | 5.0 | 0.00 | 0.00 | 0.00 | 94 | 1019.1 |
| 20260506141309 | 53 | 172 | 4.0 | 5.0 | 0.00 | 0.00 | 0.00 | 94 | 1019.1 |
| 20260506140807 | 53 | 180 | 4.0 | 5.0 | 0.00 | 0.00 | 0.00 | 94 | 1018.9 |
| 20260506140303 | 53 | 174 | 4.0 | 4.0 | 0.00 | 0.00 | 0.00 | 95 | 1018.9 |
| 20260506135800 | 52 | 180 | 4.0 | 4.0 | 0.00 | 0.00 | 0.00 | 95 | 1018.9 |
| 20260506135256 | 52 | 178 | 4.0 | 4.0 | 0.00 | 0.00 | 0.00 | 95 | 1018.7 |
| 20260506134753 | 52 | 177 | 4.0 | 5.0 | 0.00 | 0.00 | 0.00 | 95 | 1018.7 |
| 20260506134249 | 52 | 177 | 4.0 | 4.0 | 0.00 | 0.00 | 0.00 | 94 | 1018.7 |
| 20260506133747 | 52 | 174 | 4.0 | 5.0 | 0.00 | 0.00 | 0.00 | 95 | 1018.6 |
| 20260506133243 | 52 | 174 | 3.0 | 4.0 | 0.00 | 0.00 | 0.00 | 94 | 1018.6 |
| 20260506132740 | 52 | 173 | 4.0 | 4.0 | 0.00 | 0.00 | 0.00 | 95 | 1018.7 |
| 20260506132238 | 52 | 180 | 4.0 | 5.0 | 0.00 | 0.00 | 0.00 | 95 | 1018.4 |
| 20260506131736 | 52 | 167 | 4.0 | 5.0 | 0.00 | 0.00 | 0.00 | 95 | 1018.3 |
| 20260506131231 | 52 | 171 | 4.0 | 5.0 | 0.00 | 0.00 | 0.00 | 95 | 1018.2 |
| 20260506130728 | 52 | 176 | 4.0 | 4.0 | 0.00 | 0.00 | 0.00 | 95 | 1018.4 |
| 20260506130225 | 52 | 174 | 4.0 | 5.0 | 0.00 | 0.00 | 0.00 | 94 | 1018.4 |
| 20260506125723 | 52 | 170 | 5.0 | 5.0 | 0.00 | 0.00 | 0.00 | 94 | 1018.3 |
| 20260506125221 | 52 | 176 | 4.0 | 5.0 | 0.00 | 0.00 | 0.00 | 94 | 1018.2 |
| 20260506124719 | 52 | 177 | 4.0 | 4.0 | 0.00 | 0.00 | 0.00 | 94 | 1018.2 |
| 20260506124217 | 52 | 173 | 4.0 | 4.0 | 0.00 | 0.00 | 0.00 | 94 | 1018.3 |
| 20260506123713 | 52 | 178 | 4.0 | 5.0 | 0.00 | 0.00 | 0.00 | 94 | 1018.1 |
| 20260506123213 | 52 | 178 | 4.0 | 4.0 | 0.00 | 0.00 | 0.00 | 94 | 1018.1 |
| 20260506122709 | 52 | 181 | 4.0 | 5.0 | 0.00 | 0.00 | 0.00 | 94 | 1018.2 |
| 20260506122206 | 52 | 180 | 4.0 | 5.0 | 0.00 | 0.00 | 0.00 | 94 | 1018.2 |
| 20260506121704 | 52 | 178 | 4.0 | 5.0 | 0.00 | 0.00 | 0.00 | 94 | 1018.0 |
| 20260506121200 | 52 | 174 | 4.0 | 5.0 | 0.00 | 0.00 | 0.00 | 95 | 1018.0 |
| 20260506120658 | 52 | 174 | 4.0 | 4.0 | 0.00 | 0.00 | 0.00 | 94 | 1017.9 |
| 20260506120155 | 52 | 180 | 4.0 | 4.0 | 0.00 | 0.00 | 0.00 | 95 | 1017.9 |
| 20260506115654 | 52 | 174 | 4.0 | 5.0 | 0.00 | 0.00 | 0.00 | 95 | 1017.6 |
| 20260506115151 | 52 | 180 | 5.0 | 5.0 | 0.00 | 0.00 | 0.00 | 95 | 1017.9 |
| 20260506114648 | 52 | 171 | 4.0 | 4.0 | 0.00 | 0.00 | 0.00 | 95 | 1017.8 |
| 20260506114146 | 52 | 173 | 4.0 | 4.0 | 0.00 | 0.00 | 0.00 | 95 | 1017.9 |
| 20260506113645 | 52 | 169 | 4.0 | 5.0 | 0.00 | 0.00 | 0.00 | 95 | 1018.0 |
| 20260506113141 | 52 | 169 | 4.0 | 5.0 | 0.00 | 0.00 | 0.00 | 95 | 1017.8 |
| 20260506112637 | 52 | 170 | 4.0 | 5.0 | 0.00 | 0.00 | 0.00 | 95 | 1018.1 |
| 20260506112135 | 52 | 173 | 4.0 | 5.0 | 0.00 | 0.00 | 0.00 | 95 | 1018.0 |
| 20260506111633 | 51 | 173 | 4.0 | 5.0 | 0.00 | 0.00 | 0.00 | 95 | 1017.7 |
| 20260506111130 | 51 | 178 | 4.0 | 5.0 | 0.00 | 0.00 | 0.00 | 95 | 1017.8 |
| 20260506110627 | 51 | 165 | 4.0 | 5.0 | 0.00 | 0.00 | 0.00 | 95 | 1017.7 |
| 20260506110125 | 52 | 163 | 4.0 | 6.0 | 0.00 | 0.00 | 0.00 | 95 | 1017.8 |
| 20260506105621 | 52 | 171 | 4.0 | 5.0 | 0.00 | 0.00 | 0.00 | 95 | 1017.7 |
| 20260506105118 | 52 | 169 | 4.0 | 5.0 | 0.00 | 0.00 | 0.00 | 95 | 1017.6 |
| 20260506104616 | 51 | 172 | 4.0 | 5.0 | 0.00 | 0.00 | 0.00 | 95 | 1017.7 |
| 20260506104113 | 51 | 165 | 5.0 | 5.0 | 0.00 | 0.00 | 0.00 | 95 | 1017.7 |
| 20260506103611 | 51 | 172 | 4.0 | 5.0 | 0.00 | 0.00 | 0.00 | 95 | 1017.6 |
| 20260506103108 | 51 | 170 | 4.0 | 4.0 | 0.00 | 0.00 | 0.00 | 95 | 1017.7 |
| 20260506102606 | 51 | 176 | 4.0 | 5.0 | 0.00 | 0.00 | 0.00 | 95 | 1017.7 |
| 20260506102103 | 51 | 186 | 4.0 | 5.0 | 0.00 | 0.00 | 0.00 | 95 | 1017.9 |
| 20260506101559 | 51 | 169 | 4.0 | 5.0 | 0.00 | 0.00 | 0.00 | 95 | 1017.7 |
| 20260506101056 | 51 | 168 | 4.0 | 5.0 | 0.00 | 0.00 | 0.00 | 95 | 1017.7 |
| 20260506100555 | 51 | 167 | 5.0 | 5.0 | 0.00 | 0.00 | 0.00 | 95 | 1017.7 |
| 20260506100052 | 51 | 173 | 4.0 | 5.0 | 0.00 | 0.00 | 0.00 | 95 | 1017.7 |
| 20260506095551 | 51 | 176 | 4.0 | 5.0 | 0.00 | 0.00 | 0.00 | 95 | 1017.8 |
| 20260506095047 | 51 | 175 | 4.0 | 5.0 | 0.00 | 0.00 | 0.00 | 95 | 1017.7 |
| 20260506094545 | 51 | 175 | 4.0 | 4.0 | 0.00 | 0.00 | 0.00 | 95 | 1017.9 |
| 20260506094043 | 51 | 167 | 5.0 | 5.0 | 0.00 | 0.00 | 0.00 | 95 | 1017.8 |
| 20260506093541 | 51 | 169 | 5.0 | 5.0 | 0.00 | 0.00 | 0.00 | 95 | 1017.9 |
| 20260506093038 | 51 | 168 | 5.0 | 6.0 | 0.00 | 0.00 | 0.00 | 95 | 1017.8 |
| 20260506092536 | 51 | 169 | 4.0 | 5.0 | 0.00 | 0.00 | 0.00 | 95 | 1017.8 |
| 20260506092032 | 51 | 169 | 4.0 | 5.0 | 0.00 | 0.00 | 0.00 | 95 | 1017.8 |
| 20260506091531 | 51 | 172 | 5.0 | 5.0 | 0.00 | 0.00 | 0.00 | 94 | 1017.7 |
| 20260506091028 | 51 | 173 | 4.0 | 5.0 | 0.00 | 0.00 | 0.00 | 94 | 1017.8 |
| 20260506090525 | 51 | 174 | 4.0 | 5.0 | 0.00 | 0.00 | 0.00 | 94 | 1017.6 |
| 20260506090021 | 51 | 165 | 5.0 | 5.0 | 0.00 | 0.00 | 0.00 | 94 | 1017.7 |
| 20260506085518 | 52 | 167 | 4.0 | 6.0 | 0.00 | 0.00 | 0.00 | 94 | 1017.6 |
| 20260506085015 | 52 | 174 | 4.0 | 5.0 | 0.00 | 0.00 | 0.00 | 94 | 1017.6 |
| 20260506084512 | 52 | 177 | 4.0 | 4.0 | 0.00 | 0.00 | 0.00 | 93 | 1017.7 |
| 20260506084008 | 52 | 168 | 4.0 | 5.0 | 0.00 | 0.00 | 0.00 | 93 | 1017.5 |
| 20260506083505 | 52 | 176 | 4.0 | 5.0 | 0.00 | 0.00 | 0.00 | 93 | 1017.7 |
| 20260506083002 | 52 | 171 | 5.0 | 5.0 | 0.00 | 0.00 | 0.00 | 93 | 1017.6 |
| 20260506082459 | 53 | 171 | 4.0 | 5.0 | 0.00 | 0.00 | 0.00 | 93 | 1017.6 |
| 20260506081955 | 53 | 176 | 4.0 | 5.0 | 0.00 | 0.00 | 0.00 | 93 | 1017.5 |
| 20260506081454 | 53 | 176 | 4.0 | 5.0 | 0.00 | 0.00 | 0.00 | 93 | 1017.6 |
| 20260506080951 | 53 | 178 | 4.0 | 4.0 | 0.00 | 0.00 | 0.00 | 93 | 1017.6 |
| 20260506080448 | 53 | 169 | 5.0 | 5.0 | 0.00 | 0.00 | 0.00 | 92 | 1017.5 |
| 20260506073431 | 54 | 177 | 4.0 | 4.0 | 0.00 | 0.00 | 0.00 | 91 | 1017.4 |
| 20260506072929 | 54 | 174 | 4.0 | 5.0 | 0.00 | 0.00 | 0.00 | 91 | 1017.2 |
| 20260506072426 | 54 | 170 | 4.0 | 5.0 | 0.00 | 0.00 | 0.00 | 90 | 1017.3 |
| 20260506071924 | 54 | 175 | 4.0 | 5.0 | 0.00 | 0.00 | 0.00 | 90 | 1017.3 |
| 20260506071421 | 55 | 170 | 5.0 | 5.0 | 0.00 | 0.00 | 0.00 | 90 | 1017.3 |
| 20260506070918 | 55 | 165 | 4.0 | 5.0 | 0.00 | 0.00 | 0.00 | 89 | 1017.2 |
| 20260506070415 | 55 | 175 | 4.0 | 5.0 | 0.00 | 0.00 | 0.00 | 89 | 1017.1 |
| 20260506062352 | 56 | 173 | 4.0 | 4.0 | 0.00 | 0.00 | 0.00 | 88 | 1016.8 |
| 20260506061848 | 56 | 174 | 4.0 | 5.0 | 0.00 | 0.00 | 0.00 | 89 | 1017.1 |
| 20260506061344 | 56 | 177 | 4.0 | 4.0 | 0.00 | 0.00 | 0.00 | 89 | 1016.9 |
| 20260506060843 | 56 | 176 | 4.0 | 5.0 | 0.00 | 0.00 | 0.00 | 88 | 1016.8 |
| 20260506060341 | 56 | 188 | 4.0 | 5.0 | 0.00 | 0.00 | 0.00 | 88 | 1016.8 |
| 20260506051312 | 56 | 182 | 5.0 | 5.0 | 0.00 | 0.00 | 0.00 | 87 | 1016.6 |
| 20260506050810 | 56 | 177 | 5.0 | 5.0 | 0.00 | 0.00 | 0.00 | 86 | 1016.7 |
| 20260506050308 | 56 | 173 | 5.0 | 5.0 | 0.00 | 0.00 | 0.00 | 87 | 1016.6 |
| 20260506044758 | 56 | 178 | 4.0 | 5.0 | 0.00 | 0.00 | 0.00 | 85 | 1016.4 |
| 20260506044255 | 57 | 179 | 4.0 | 5.0 | 0.00 | 0.00 | 0.00 | 87 | 1016.4 |
| 20260506043752 | 57 | 173 | 5.0 | 5.0 | 0.00 | 0.00 | 0.00 | 86 | 1016.4 |
| 20260506043249 | 57 | 168 | 4.0 | 5.0 | 0.00 | 0.00 | 0.00 | 85 | 1016.3 |
| 20260506042748 | 57 | 178 | 4.0 | 4.0 | 0.00 | 0.00 | 0.00 | 86 | 1016.3 |
| 20260506042247 | 57 | 175 | 5.0 | 5.0 | 0.00 | 0.00 | 0.00 | 85 | 1016.2 |
| 20260506041745 | 57 | 172 | 4.0 | 5.0 | 0.00 | 0.00 | 0.00 | 84 | 1016.2 |
| 20260506041241 | 57 | 176 | 5.0 | 6.0 | 0.00 | 0.00 | 0.00 | 85 | 1016.1 |
| 20260506040739 | 57 | 173 | 4.0 | 5.0 | 0.00 | 0.00 | 0.00 | 85 | 1016.1 |
| 20260506040236 | 57 | 172 | 5.0 | 5.0 | 0.00 | 0.00 | 0.00 | 85 | 1015.9 |
| 20260506035732 | 57 | 180 | 4.0 | 5.0 | 0.00 | 0.00 | 0.00 | 86 | 1016.0 |
| 20260506035230 | 57 | 182 | 4.0 | 5.0 | 0.00 | 0.00 | 0.00 | 86 | 1015.9 |
| 20260506034726 | 57 | 178 | 5.0 | 5.0 | 0.00 | 0.00 | 0.00 | 86 | 1015.8 |
| 20260506034223 | 57 | 177 | 5.0 | 5.0 | 0.00 | 0.00 | 0.00 | 86 | 1015.8 |
| 20260506033721 | 57 | 188 | 4.0 | 5.0 | 0.00 | 0.00 | 0.00 | 85 | 1015.8 |
| 20260506033218 | 57 | 193 | 5.0 | 5.0 | 0.00 | 0.00 | 0.00 | 86 | 1015.7 |
| 20260506032714 | 57 | 178 | 5.0 | 5.0 | 0.00 | 0.00 | 0.00 | 86 | 1015.6 |
| 20260506032212 | 57 | 187 | 4.0 | 5.0 | 0.00 | 0.00 | 0.00 | 86 | 1015.5 |
| 20260506031708 | 57 | 190 | 4.0 | 5.0 | 0.00 | 0.00 | 0.00 | 86 | 1015.5 |
| 20260506031206 | 58 | 174 | 4.0 | 5.0 | 0.00 | 0.00 | 0.00 | 87 | 1015.3 |
| 20260506030704 | 58 | 180 | 4.0 | 5.0 | 0.00 | 0.00 | 0.00 | 87 | 1015.3 |
| 20260506030201 | 58 | 177 | 4.0 | 5.0 | 0.00 | 0.00 | 0.00 | 87 | 1015.1 |
| 20260506025657 | 58 | 177 | 4.0 | 5.0 | 0.00 | 0.00 | 0.00 | 86 | 1015.3 |
| 20260506025154 | 58 | 180 | 5.0 | 5.0 | 0.00 | 0.00 | 0.00 | 86 | 1015.0 |
| 20260506024651 | 58 | 168 | 4.0 | 5.0 | 0.00 | 0.00 | 0.00 | 86 | 1015.0 |
| 20260506024148 | 58 | 166 | 5.0 | 5.0 | 0.00 | 0.00 | 0.00 | 86 | 1015.2 |
| 20260506023644 | 58 | 180 | 5.0 | 5.0 | 0.00 | 0.00 | 0.00 | 86 | 1015.1 |
| 20260506023141 | 58 | 176 | 5.0 | 5.0 | 0.00 | 0.00 | 0.00 | 85 | 1015.0 |
| 20260506022638 | 58 | 175 | 5.0 | 6.0 | 0.00 | 0.00 | 0.00 | 85 | 1015.0 |
| 20260506022136 | 58 | 184 | 4.0 | 5.0 | 0.00 | 0.00 | 0.00 | 84 | 1015.0 |
| 20260506021634 | 58 | 178 | 4.0 | 5.0 | 0.00 | 0.00 | 0.00 | 85 | 1015.1 |
| 20260506021130 | 59 | 182 | 4.0 | 5.0 | 0.00 | 0.00 | 0.00 | 84 | 1015.1 |
| 20260506020627 | 58 | 179 | 4.0 | 5.0 | 0.00 | 0.00 | 0.00 | 84 | 1015.0 |
| 20260506020125 | 59 | 171 | 5.0 | 6.0 | 0.00 | 0.00 | 0.00 | 84 | 1015.2 |
| 20260506015622 | 59 | 185 | 4.0 | 5.0 | 0.00 | 0.00 | 0.00 | 84 | 1015.0 |
| 20260506015119 | 59 | 184 | 4.0 | 5.0 | 0.00 | 0.00 | 0.00 | 83 | 1015.1 |
| 20260506014617 | 59 | 175 | 4.0 | 4.0 | 0.00 | 0.00 | 0.00 | 83 | 1015.0 |
| 20260506014112 | 59 | 171 | 4.0 | 5.0 | 0.00 | 0.00 | 0.00 | 82 | 1014.9 |
| 20260506013611 | 59 | 178 | 5.0 | 5.0 | 0.00 | 0.00 | 0.00 | 81 | 1014.9 |
| 20260506013107 | 59 | 173 | 5.0 | 5.0 | 0.00 | 0.00 | 0.00 | 81 | 1014.8 |
| 20260506012603 | 59 | 176 | 4.0 | 5.0 | 0.00 | 0.00 | 0.00 | 81 | 1014.8 |
| 20260506012100 | 59 | 173 | 5.0 | 6.0 | 0.00 | 0.00 | 0.00 | 81 | 1014.7 |
| 20260506011558 | 59 | 176 | 5.0 | 6.0 | 0.00 | 0.00 | 0.00 | 79 | 1014.6 |
| 20260506011054 | 60 | 163 | 5.0 | 5.0 | 0.00 | 0.00 | 0.00 | 78 | 1014.7 |
| 20260506010553 | 60 | 174 | 5.0 | 5.0 | 0.00 | 0.00 | 0.00 | 78 | 1014.7 |
| 20260506010050 | 60 | 178 | 4.0 | 5.0 | 0.00 | 0.00 | 0.00 | 76 | 1014.6 |
| 20260506005547 | 60 | 175 | 5.0 | 6.0 | 0.00 | 0.00 | 0.00 | 77 | 1014.6 |
| 20260506005042 | 60 | 177 | 5.0 | 5.0 | 0.00 | 0.00 | 0.00 | 76 | 1014.5 |
| 20260506004540 | 61 | 174 | 4.0 | 5.0 | 0.00 | 0.00 | 0.00 | 75 | 1014.5 |
| 20260506004037 | 61 | 180 | 4.0 | 6.0 | 0.00 | 0.00 | 0.00 | 75 | 1014.5 |